createdAt,value
2022-09-20T00:02:05.270Z,11.36
2022-09-20T00:04:35.346Z,11.40
2022-09-20T00:07:04.120Z,11.40
2022-09-20T00:09:32.797Z,11.41
2022-09-20T00:12:01.616Z,11.33
2022-09-20T00:14:30.257Z,11.30
2022-09-20T00:16:58.915Z,11.27
2022-09-20T00:19:27.868Z,11.25
2022-09-20T00:21:58.330Z,11.26
2022-09-20T00:24:26.898Z,11.26
2022-09-20T00:26:55.534Z,11.23
2022-09-20T00:29:25.799Z,11.16
2022-09-20T00:31:54.712Z,11.11
2022-09-20T00:34:33.399Z,11.06
2022-09-20T00:37:03.467Z,11.11
2022-09-20T00:39:32.111Z,11.10
2022-09-20T00:42:00.710Z,11.12
2022-09-20T00:45:00.750Z,11.14
2022-09-20T00:47:38.629Z,11.11
2022-09-20T00:50:23.430Z,11.13
2022-09-20T00:52:57.870Z,11.15
2022-09-20T00:55:27.610Z,11.15
2022-09-20T00:57:56.095Z,11.13
2022-09-20T01:00:25.228Z,11.09
2022-09-20T01:02:58.907Z,11.06
2022-09-20T01:05:28.321Z,11.02
2022-09-20T01:07:58.937Z,11.03
2022-09-20T01:10:27.690Z,11.07
2022-09-20T01:12:56.382Z,11.07
2022-09-20T01:15:28.076Z,11.06
2022-09-20T01:17:59.539Z,11.03
2022-09-20T01:20:32.323Z,11.04
2022-09-20T01:23:18.515Z,11.02
2022-09-20T01:26:08.522Z,10.98
2022-09-20T01:28:42.821Z,10.98
2022-09-20T01:31:17.274Z,11.01
2022-09-20T01:33:51.240Z,11.02
2022-09-20T01:36:26.728Z,10.97
2022-09-20T01:39:05.840Z,11.00
2022-09-20T01:41:38.978Z,11.00
2022-09-20T01:44:18.093Z,10.95
2022-09-20T01:46:52.149Z,10.92
2022-09-20T01:49:32.219Z,10.92
2022-09-20T01:52:27.708Z,10.91
2022-09-20T01:55:25.302Z,10.93
2022-09-20T01:58:22.274Z,10.90
2022-09-20T02:01:13.644Z,10.92
2022-09-20T02:04:08.629Z,10.96
2022-09-20T02:07:06.283Z,11.00
2022-09-20T02:10:05.219Z,11.00
2022-09-20T02:12:53.552Z,11.01
2022-09-20T02:15:43.342Z,11.05
2022-09-20T02:18:25.922Z,11.00
2022-09-20T02:21:00.399Z,10.97
2022-09-20T02:23:41.043Z,10.94
2022-09-20T02:26:26.831Z,10.87
2022-09-20T02:29:07.867Z,10.83
2022-09-20T02:31:56.805Z,10.81
2022-09-20T02:34:48.180Z,10.78
2022-09-20T02:37:48.692Z,10.77
2022-09-20T02:40:28.806Z,10.78
2022-09-20T02:43:09.275Z,10.82
2022-09-20T02:45:43.975Z,10.86
2022-09-20T02:48:16.160Z,10.88
2022-09-20T02:50:56.155Z,10.89
2022-09-20T02:53:40.070Z,10.95
2022-09-20T02:56:19.031Z,10.90
2022-09-20T02:58:56.691Z,10.74
2022-09-20T03:01:37.406Z,10.65
2022-09-20T03:04:21.353Z,10.50
2022-09-20T03:07:02.902Z,10.47
2022-09-20T03:09:40.000Z,10.47
2022-09-20T03:12:20.682Z,10.52
2022-09-20T03:15:03.711Z,10.44
2022-09-20T03:17:42.787Z,10.35
2022-09-20T03:20:23.951Z,10.35
2022-09-20T03:23:03.484Z,10.30
2022-09-20T03:25:52.362Z,10.21
2022-09-20T03:28:36.019Z,10.21
2022-09-20T03:31:16.734Z,10.17
2022-09-20T03:33:53.739Z,10.08
2022-09-20T03:36:41.769Z,10.00
2022-09-20T03:39:31.444Z,9.88
2022-09-20T03:42:09.319Z,9.88
2022-09-20T03:45:05.801Z,9.90
2022-09-20T03:47:56.671Z,9.89
2022-09-20T03:50:50.574Z,9.90
2022-09-20T03:53:46.688Z,9.88
2022-09-20T03:56:47.299Z,9.98
2022-09-20T03:59:33.332Z,10.01
2022-09-20T04:02:27.407Z,10.01
2022-09-20T04:05:00.799Z,10.08
2022-09-20T04:07:35.909Z,10.14
2022-09-20T04:10:18.808Z,10.06
2022-09-20T04:13:07.450Z,10.09
2022-09-20T04:15:47.728Z,10.07
2022-09-20T04:18:28.352Z,10.09
2022-09-20T04:21:04.440Z,10.12
2022-09-20T04:23:47.392Z,10.13
2022-09-20T04:26:22.139Z,10.08
2022-09-20T04:28:58.808Z,10.18
2022-09-20T04:31:37.821Z,10.18
2022-09-20T04:34:15.873Z,10.21
2022-09-20T04:36:57.600Z,10.19
2022-09-20T04:39:42.702Z,10.09
2022-09-20T04:42:34.650Z,10.13
2022-09-20T04:45:38.852Z,10.16
2022-09-20T04:48:28.491Z,10.14
2022-09-20T04:51:07.948Z,10.20
2022-09-20T04:53:52.684Z,10.18
2022-09-20T04:56:41.280Z,10.20
2022-09-20T04:59:12.060Z,10.31
2022-09-20T05:02:03.790Z,10.33
2022-09-20T05:04:54.680Z,10.39
2022-09-20T05:08:09.008Z,10.44
2022-09-20T05:11:06.566Z,10.47
2022-09-20T05:13:53.915Z,10.47
2022-09-20T05:16:32.525Z,10.57
2022-09-20T05:19:22.239Z,10.67
2022-09-20T05:22:25.470Z,10.76
2022-09-20T05:25:24.892Z,10.80
2022-09-20T05:27:58.871Z,10.91
2022-09-20T05:30:38.381Z,10.99
2022-09-20T05:33:20.731Z,11.05
2022-09-20T05:36:04.330Z,11.10
2022-09-20T05:38:45.811Z,11.15
2022-09-20T05:41:25.272Z,11.16
2022-09-20T05:44:06.415Z,11.21
2022-09-20T05:46:46.459Z,11.23
2022-09-20T05:49:25.890Z,11.28
2022-09-20T05:52:13.161Z,11.35
2022-09-20T05:55:04.133Z,11.40
2022-09-20T05:57:56.691Z,11.42
2022-09-20T06:00:31.686Z,11.40
2022-09-20T06:03:17.182Z,11.46
2022-09-20T06:05:56.460Z,11.49
2022-09-20T06:08:50.423Z,11.52
2022-09-20T06:11:34.958Z,11.52
2022-09-20T06:14:19.278Z,11.48
2022-09-20T06:17:00.730Z,11.35
2022-09-20T06:19:38.251Z,11.29
2022-09-20T06:22:18.294Z,11.16
2022-09-20T06:24:51.807Z,11.06
2022-09-20T06:27:25.859Z,11.11
2022-09-20T06:30:05.335Z,11.11
2022-09-20T06:32:34.912Z,11.07
2022-09-20T06:35:06.129Z,11.13
2022-09-20T06:37:53.962Z,11.24
2022-09-20T06:40:44.051Z,11.46
2022-09-20T06:43:14.627Z,11.55
2022-09-20T06:45:44.764Z,11.57
2022-09-20T06:48:15.363Z,11.64
2022-09-20T06:50:45.605Z,11.73
2022-09-20T06:53:19.404Z,11.82
2022-09-20T06:55:48.723Z,11.88
2022-09-20T06:58:17.264Z,11.89
2022-09-20T07:00:47.859Z,11.91
2022-09-20T07:03:16.494Z,11.95
2022-09-20T07:05:44.953Z,12.00
2022-09-20T07:08:13.883Z,12.03
2022-09-20T07:10:44.204Z,12.03
2022-09-20T07:13:14.045Z,12.08
2022-09-20T07:15:42.711Z,12.11
2022-09-20T07:18:12.645Z,12.17
2022-09-20T07:20:42.082Z,12.22
2022-09-20T07:23:10.722Z,12.21
2022-09-20T07:25:39.410Z,12.18
2022-09-20T07:28:08.010Z,12.21
2022-09-20T07:30:36.515Z,12.18
2022-09-20T07:33:05.165Z,12.19
2022-09-20T07:35:35.903Z,12.22
2022-09-20T07:38:04.518Z,12.22
2022-09-20T07:40:33.058Z,12.22
2022-09-20T07:43:02.128Z,12.18
2022-09-20T07:45:31.602Z,12.18
2022-09-20T07:48:00.279Z,12.16
2022-09-20T07:50:28.786Z,12.16
2022-09-20T07:52:59.029Z,12.12
2022-09-20T07:55:27.938Z,12.07
2022-09-20T07:57:57.600Z,12.07
2022-09-20T08:00:26.957Z,12.13
2022-09-20T08:03:01.605Z,12.18
2022-09-20T08:05:31.289Z,12.28
2022-09-20T08:08:01.484Z,12.39
2022-09-20T08:10:30.179Z,12.44
2022-09-20T08:15:49.818Z,12.59
2022-09-20T08:18:18.340Z,12.62
2022-09-20T08:20:46.864Z,12.71
2022-09-20T08:23:24.298Z,12.80
2022-09-20T08:25:53.183Z,12.77
2022-09-20T08:28:21.807Z,12.73
2022-09-20T08:30:50.339Z,12.71
2022-09-20T08:33:18.965Z,12.70
2022-09-20T08:35:50.456Z,12.67
2022-09-20T08:41:17.157Z,12.80
2022-09-20T08:43:53.128Z,12.84
2022-09-20T08:46:27.417Z,12.95
2022-09-20T08:48:56.631Z,13.02
2022-09-20T08:51:30.872Z,12.99
2022-09-20T08:54:01.495Z,13.00
2022-09-20T08:56:36.405Z,13.10
2022-09-20T08:59:08.277Z,13.16
2022-09-20T09:01:37.976Z,13.24
2022-09-20T09:04:13.866Z,13.32
2022-09-20T09:06:43.791Z,13.42
2022-09-20T09:09:20.249Z,13.50
2022-09-20T09:11:49.608Z,13.57
2022-09-20T09:14:36.425Z,13.74
2022-09-20T09:17:05.149Z,14.14
2022-09-20T09:19:43.968Z,14.26
2022-09-20T09:22:17.978Z,14.31
2022-09-20T09:25:07.306Z,14.50
2022-09-20T09:27:37.051Z,14.75
2022-09-20T09:30:20.462Z,15.05
2022-09-20T09:32:49.140Z,15.13
2022-09-20T09:35:32.938Z,15.20
2022-09-20T09:38:03.803Z,15.14
2022-09-20T09:40:34.739Z,15.13
2022-09-20T09:43:04.816Z,15.11
2022-09-20T09:45:36.389Z,15.10
2022-09-20T09:48:20.157Z,15.07
2022-09-20T09:50:48.932Z,15.03
2022-09-20T09:53:21.045Z,14.97
2022-09-20T09:56:14.325Z,14.94
2022-09-20T09:58:59.175Z,14.90
2022-09-20T10:01:38.549Z,14.85
2022-09-20T10:04:17.407Z,14.74
2022-09-20T10:06:56.389Z,14.75
2022-09-20T10:09:36.427Z,14.71
2022-09-20T10:12:23.041Z,14.69
2022-09-20T10:15:07.302Z,14.72
2022-09-20T10:17:52.538Z,14.75
2022-09-20T10:20:35.768Z,14.71
2022-09-20T10:23:45.236Z,14.71
2022-09-20T10:26:22.608Z,14.74
2022-09-20T10:29:08.583Z,14.81
2022-09-20T10:31:49.250Z,14.83
2022-09-20T10:34:40.149Z,14.77
2022-09-20T10:37:17.138Z,14.80
2022-09-20T10:39:55.616Z,14.88
2022-09-20T10:42:52.808Z,14.98
2022-09-20T10:45:59.485Z,15.03
2022-09-20T10:48:27.468Z,15.12
2022-09-20T10:51:02.149Z,15.10
2022-09-20T10:53:38.788Z,15.19
2022-09-20T10:56:24.479Z,15.21
2022-09-20T10:59:09.919Z,15.29
2022-09-20T11:01:50.598Z,15.37
2022-09-20T11:04:36.564Z,15.43
2022-09-20T11:07:16.869Z,15.58
2022-09-20T11:09:51.238Z,15.67
2022-09-20T11:12:28.851Z,15.80
2022-09-20T11:15:04.591Z,16.02
2022-09-20T11:17:40.241Z,16.19
2022-09-20T11:20:18.636Z,16.28
2022-09-20T11:22:51.439Z,16.14
2022-09-20T11:25:29.296Z,16.12
2022-09-20T11:28:04.349Z,16.46
2022-09-20T11:30:40.283Z,16.79
2022-09-20T11:33:19.379Z,17.11
2022-09-20T11:35:51.170Z,17.16
2022-09-20T11:38:27.642Z,17.53
2022-09-20T11:41:00.538Z,17.62
2022-09-20T11:43:31.369Z,17.41
2022-09-20T11:46:04.952Z,17.17
2022-09-20T11:48:38.907Z,16.96
2022-09-20T11:51:29.442Z,17.12
2022-09-20T11:54:18.486Z,17.07
2022-09-20T11:56:52.970Z,17.51
2022-09-20T11:59:31.999Z,17.56
2022-09-20T12:02:03.172Z,17.35
2022-09-20T12:04:38.510Z,17.12
2022-09-20T12:07:18.281Z,16.74
2022-09-20T12:09:52.814Z,16.40
2022-09-20T12:12:34.285Z,16.03
2022-09-20T12:15:06.274Z,15.92
2022-09-20T12:17:56.734Z,15.79
2022-09-20T12:20:47.124Z,15.55
2022-09-20T12:23:37.852Z,15.43
2022-09-20T12:26:10.915Z,15.38
2022-09-20T12:28:42.062Z,15.46
2022-09-20T12:31:32.621Z,15.51
2022-09-20T12:34:04.154Z,15.63
2022-09-20T12:36:36.388Z,16.05
2022-09-20T12:39:08.082Z,16.49
2022-09-20T12:41:50.902Z,16.66
2022-09-20T12:44:31.184Z,16.78
2022-09-20T12:47:02.306Z,16.90
2022-09-20T12:49:54.581Z,16.99
2022-09-20T12:52:43.752Z,17.31
2022-09-20T12:55:14.472Z,17.30
2022-09-20T12:57:44.585Z,16.92
2022-09-20T13:00:36.699Z,16.78
2022-09-20T13:03:14.975Z,16.52
2022-09-20T13:05:45.988Z,16.37
2022-09-20T13:08:17.873Z,16.09
2022-09-20T13:10:51.404Z,15.85
2022-09-20T13:13:35.093Z,15.85
2022-09-20T13:16:07.840Z,15.81
2022-09-20T13:18:38.981Z,15.70
2022-09-20T13:21:09.750Z,15.62
2022-09-20T13:23:48.691Z,15.45
2022-09-20T13:26:23.243Z,14.85
2022-09-20T13:28:59.464Z,14.20
2022-09-20T13:31:33.961Z,13.76
2022-09-20T13:34:22.124Z,13.38
2022-09-20T13:37:06.812Z,13.07
2022-09-20T13:39:38.413Z,12.89
2022-09-20T13:42:15.231Z,12.89
2022-09-20T13:44:45.597Z,12.87
2022-09-20T13:47:27.605Z,12.89
2022-09-20T13:50:03.053Z,12.90
2022-09-20T13:52:33.150Z,12.84
2022-09-20T13:55:02.494Z,12.85
2022-09-20T13:57:32.095Z,12.93
2022-09-20T14:00:03.194Z,13.03
2022-09-20T14:02:40.629Z,13.03
2022-09-20T14:05:18.890Z,13.08
2022-09-20T14:07:49.377Z,13.08
2022-09-20T14:10:31.529Z,13.05
2022-09-20T14:13:01.285Z,13.07
2022-09-20T14:15:34.969Z,13.08
2022-09-20T14:18:06.927Z,13.10
2022-09-20T14:20:35.876Z,13.08
2022-09-20T14:23:04.566Z,13.12
2022-09-20T14:25:34.858Z,13.03
2022-09-20T14:28:08.876Z,12.95
2022-09-20T14:30:39.248Z,12.97
2022-09-20T14:33:15.976Z,12.96
2022-09-20T14:35:49.557Z,12.95
2022-09-20T14:38:20.200Z,12.93
2022-09-20T14:40:52.150Z,12.94
2022-09-20T14:43:32.469Z,12.90
2022-09-20T14:46:05.721Z,12.83
2022-09-20T14:48:41.181Z,12.78
2022-09-20T14:51:26.878Z,12.75
2022-09-20T14:54:27.207Z,12.70
2022-09-20T14:56:57.987Z,12.72
2022-09-20T14:59:30.677Z,12.77
2022-09-20T15:02:04.597Z,12.76
2022-09-20T15:04:38.236Z,12.79
2022-09-20T15:07:08.768Z,12.75
2022-09-20T15:09:37.545Z,12.74
2022-09-20T15:12:08.552Z,12.75
2022-09-20T15:14:38.037Z,12.74
2022-09-20T15:17:08.659Z,12.68
2022-09-20T15:19:38.249Z,12.64
2022-09-20T15:22:06.985Z,12.71
2022-09-20T15:24:35.666Z,12.86
2022-09-20T15:27:04.599Z,12.87
2022-09-20T15:29:33.664Z,12.93
2022-09-20T15:32:03.223Z,12.85
2022-09-20T15:34:33.766Z,12.91
2022-09-20T15:37:02.428Z,12.98
2022-09-20T15:39:31.074Z,12.99
2022-09-20T15:42:00.077Z,12.98
2022-09-20T15:44:28.879Z,12.96
2022-09-20T15:46:57.449Z,12.98
2022-09-20T15:49:27.238Z,13.03
2022-09-20T15:51:57.340Z,13.02
2022-09-20T15:54:26.809Z,12.96
2022-09-20T15:56:55.526Z,12.89
2022-09-20T15:59:24.430Z,12.82
2022-09-20T16:01:53.071Z,12.77
2022-09-20T16:04:21.929Z,12.67
2022-09-20T16:06:51.569Z,12.57
2022-09-20T16:09:21.977Z,12.50
2022-09-20T16:11:50.757Z,12.40
2022-09-20T16:14:19.345Z,12.36
2022-09-20T16:16:48.019Z,12.32
2022-09-20T16:19:18.289Z,12.29
2022-09-20T16:21:53.601Z,12.19
2022-09-20T16:24:28.753Z,12.06
2022-09-20T16:26:57.792Z,11.99
2022-09-20T16:29:27.129Z,11.86
2022-09-20T16:31:57.772Z,11.76
2022-09-20T16:34:31.520Z,11.68
2022-09-20T16:37:02.342Z,11.58
2022-09-20T16:39:33.617Z,11.48
2022-09-20T16:42:04.705Z,11.37
2022-09-20T16:44:35.341Z,11.37
2022-09-20T16:47:08.312Z,11.31
2022-09-20T16:49:37.694Z,11.23
2022-09-20T16:52:06.631Z,11.10
2022-09-20T16:54:37.330Z,10.98
2022-09-20T16:57:06.443Z,10.90
2022-09-20T16:59:35.132Z,10.82
2022-09-20T17:02:03.851Z,10.77
2022-09-20T17:04:32.549Z,10.72
2022-09-20T17:07:02.262Z,10.77
2022-09-20T17:09:30.910Z,10.78
2022-09-20T17:12:01.603Z,10.73
2022-09-20T17:14:31.470Z,10.64
2022-09-20T17:16:59.789Z,10.58
2022-09-20T17:19:28.979Z,10.52
2022-09-20T17:21:57.630Z,10.53
2022-09-20T17:24:26.538Z,10.44
2022-09-20T17:26:56.430Z,10.49
2022-09-20T17:29:27.893Z,10.47
2022-09-20T17:31:59.771Z,10.46
2022-09-20T17:34:31.989Z,10.43
2022-09-20T17:37:01.900Z,10.46
2022-09-20T17:39:30.439Z,10.36
2022-09-20T17:41:59.111Z,10.33
2022-09-20T17:44:29.469Z,10.25
2022-09-20T17:46:58.225Z,10.26
2022-09-20T17:49:28.629Z,10.24
2022-09-20T17:51:57.777Z,10.15
2022-09-20T17:54:26.440Z,10.06
2022-09-20T17:56:56.261Z,10.02
2022-09-20T17:59:25.930Z,9.98
2022-09-20T18:01:56.149Z,9.96
2022-09-20T18:04:25.667Z,9.92
2022-09-20T18:06:55.737Z,9.92
2022-09-20T18:09:28.360Z,9.93
2022-09-20T18:11:57.716Z,9.99
2022-09-20T18:14:29.113Z,9.96
2022-09-20T18:17:02.536Z,9.89
2022-09-20T18:19:34.363Z,9.83
2022-09-20T18:22:04.701Z,9.70
2022-09-20T18:24:33.612Z,9.64
2022-09-20T18:27:02.842Z,9.60
2022-09-20T18:29:36.993Z,9.62
2022-09-20T18:32:09.246Z,9.57
2022-09-20T18:34:38.643Z,9.52
2022-09-20T18:37:14.392Z,9.42
2022-09-20T18:39:45.051Z,9.41
2022-09-20T18:42:14.536Z,9.40
2022-09-20T18:44:44.092Z,9.34
2022-09-20T18:47:14.252Z,9.27
2022-09-20T18:49:43.079Z,9.27
2022-09-20T18:52:13.312Z,9.38
2022-09-20T18:54:42.133Z,9.42
2022-09-20T18:57:12.142Z,9.45
2022-09-20T18:59:53.432Z,9.41
2022-09-20T19:02:45.282Z,9.42
2022-09-20T19:05:24.485Z,9.35
2022-09-20T19:08:04.530Z,9.31
2022-09-20T19:10:43.324Z,9.40
2022-09-20T19:13:24.869Z,9.43
2022-09-20T19:16:11.736Z,9.47
2022-09-20T19:19:08.754Z,9.48
2022-09-20T19:21:47.182Z,9.51
2022-09-20T19:24:26.969Z,9.55
2022-09-20T19:26:56.081Z,9.47
2022-09-20T19:29:27.080Z,9.42
2022-09-20T19:31:59.248Z,9.44
2022-09-20T19:34:31.402Z,9.49
2022-09-20T19:37:11.221Z,9.44
2022-09-20T19:39:55.878Z,9.36
2022-09-20T19:42:37.180Z,9.37
2022-09-20T19:45:20.580Z,9.37
2022-09-20T19:47:59.990Z,9.44
2022-09-20T19:50:33.659Z,9.41
2022-09-20T19:53:05.128Z,9.42
2022-09-20T19:55:35.430Z,9.34
2022-09-20T19:58:04.561Z,9.29
2022-09-20T20:00:33.871Z,9.25
2022-09-20T20:03:03.310Z,9.28
2022-09-20T20:05:34.435Z,9.24
2022-09-20T20:08:18.070Z,9.14
2022-09-20T20:11:00.090Z,9.12
2022-09-20T20:13:44.753Z,9.09
2022-09-20T20:16:17.371Z,9.07
2022-09-20T20:19:03.019Z,9.15
2022-09-20T20:21:45.550Z,9.19
2022-09-20T20:24:26.291Z,9.13
2022-09-20T20:26:55.183Z,9.01
2022-09-20T20:29:23.999Z,8.96
2022-09-20T20:31:52.821Z,8.91
2022-09-20T20:34:21.430Z,8.86
2022-09-20T20:36:54.855Z,8.88
2022-09-20T20:39:24.939Z,8.82
2022-09-20T20:41:53.689Z,8.77
2022-09-20T20:44:22.629Z,8.65
2022-09-20T20:46:51.145Z,8.61
2022-09-20T20:49:21.099Z,8.57
2022-09-20T20:51:51.221Z,8.57
2022-09-20T20:54:20.121Z,8.64
2022-09-20T20:56:49.004Z,8.69
2022-09-20T20:59:18.430Z,8.71
2022-09-20T21:01:47.143Z,8.73
2022-09-20T21:04:17.082Z,8.72
2022-09-20T21:06:45.711Z,8.62
2022-09-20T21:09:15.663Z,8.51
2022-09-20T21:11:44.663Z,8.46
2022-09-20T21:14:14.012Z,8.39
2022-09-20T21:16:44.184Z,8.40
2022-09-20T21:19:15.183Z,8.37
2022-09-20T21:21:45.861Z,8.38
2022-09-20T21:24:18.313Z,8.38
2022-09-20T21:26:47.764Z,8.40
2022-09-20T21:29:18.060Z,8.40
2022-09-20T21:31:47.872Z,8.41
2022-09-20T21:34:17.578Z,8.40
2022-09-20T21:36:46.254Z,8.40
2022-09-20T21:39:16.293Z,8.41
2022-09-20T21:41:48.082Z,8.36
2022-09-20T21:44:17.448Z,8.31
2022-09-20T21:46:48.641Z,8.34
2022-09-20T21:49:17.712Z,8.27
2022-09-20T21:51:46.360Z,8.33
2022-09-20T21:54:16.543Z,8.29
2022-09-20T21:56:45.192Z,8.17
2022-09-20T21:59:13.760Z,8.23
2022-09-20T22:01:42.500Z,8.26
2022-09-20T22:04:12.379Z,8.15
2022-09-20T22:06:42.501Z,8.05
2022-09-20T22:09:12.559Z,7.96
2022-09-20T22:11:45.415Z,7.99
2022-09-20T22:14:15.822Z,8.06
2022-09-20T22:16:46.252Z,8.14
2022-09-20T22:19:17.752Z,8.03
2022-09-20T22:21:48.226Z,7.93
2022-09-20T22:24:18.484Z,7.95
2022-09-20T22:26:50.879Z,7.93
2022-09-20T22:29:19.591Z,7.92
2022-09-20T22:31:50.273Z,7.93
2022-09-20T22:34:20.542Z,7.94
2022-09-20T22:36:49.576Z,7.98
2022-09-20T22:39:18.443Z,7.94
2022-09-20T22:41:49.221Z,7.99
2022-09-20T22:44:18.113Z,7.98
2022-09-20T22:46:46.634Z,7.96
2022-09-20T22:49:15.272Z,7.94
2022-09-20T22:51:43.931Z,7.88
2022-09-20T22:54:13.454Z,7.87
2022-09-20T22:56:42.706Z,7.87
2022-09-20T22:59:14.681Z,7.84
2022-09-20T23:01:46.488Z,7.92
2022-09-20T23:04:17.310Z,7.92
2022-09-20T23:06:48.434Z,7.83
2022-09-20T23:09:19.273Z,7.78
2022-09-20T23:11:48.442Z,7.80
2022-09-20T23:14:20.616Z,7.77
2022-09-20T23:16:49.572Z,7.74
2022-09-20T23:19:19.142Z,7.79
2022-09-20T23:21:47.804Z,7.87
2022-09-20T23:24:16.862Z,7.97
2022-09-20T23:26:46.013Z,8.01
2022-09-20T23:29:16.229Z,7.97
2022-09-20T23:31:48.746Z,7.91
2022-09-20T23:34:18.643Z,7.88
2022-09-20T23:36:47.878Z,7.90
2022-09-20T23:39:16.907Z,7.97
2022-09-20T23:41:50.651Z,7.99
2022-09-20T23:44:20.255Z,8.02
2022-09-20T23:46:50.305Z,8.00
2022-09-20T23:49:19.175Z,8.00
2022-09-20T23:51:47.714Z,7.83
2022-09-20T23:54:16.373Z,7.69
2022-09-20T23:56:44.955Z,7.69
2022-09-20T23:59:13.626Z,7.72
